Terminal Aerodrome Forecast
Issued by NWS

Home | Current Version | Previous Version | Graphics & Text | Print | Product List | Glossary On
Versions: 1 2 3 4 5 6 7 8 9 10 11 12 13
000
FTUS45 KGGW 080520
TAFSDY
TAF
KSDY 080520Z 0806/0906 31012KT P6SM SCT140
     FM081400 29010KT P6SM BKN140 WS020/33035KT
     FM081600 30013KT P6SM BKN110
     FM090100 31009KT P6SM SCT150=

USA.gov is the U.S. government's official web portal to all federal, state and local government web resources and services.